Lisse, Netherlands
Current Conditions -  °F | °C
As of 4:25 AM on Saturday 29 Nov 2014 (Local Time) from EHAM Reporting Station
Clear Clear  
Wind Chill: 27°   Ceiling: Unl
Heat Index: 36°   Visibility: 4mi
Dew Point: 32°   Wind: 13mph
Humidity: 87%   Direction: 100°E
Pressure: 29.91"   Gusts: NA
Location:  52.26°N, 4.56°E
Report Text: EHAM 290325Z 10011KT 060V130 7000 NSC 02/M00 Q1013 NOSIG
Loading
Personal Weather Stations






























Interactive Weather Map New forecast layout! Learn more

10-Day Weather Forecast

Advertisements
Track Severe Weather on mobile